Tiempo atmosférico en la estación meteorológica de La Pobla de Benifassà-Fredes, Castelló/Castellón (1174 m.)



Fecha
DESCASC
Temp. máxima en grados centígrados (hora)
DESCASC
Temp. mínima en grados centígrados (hora)
DESCASC
Temp. media en grados centígrados
DESCASC
Racha de viento máxima en m/sg (hora)
DESCASC
Velocidad máxima media en intervalos de 10 minutos(hora)
DESCASC
Precipitaciones diarias en mm
DESCASC
Precipitaciones de 00:00 a 06:00 en mm
DESCASC
Precipitaciones de 06:00 a 12:00 en mm
DESCASC
Precipitaciones de 12:00 a 18:00 en mm
DESCASC
Precipitaciones de 18:00 a 24:00 en mm
DESCASC
20-10-2019 12.7 (11:30) 6.6 (22:30) 9.6 12.22 (09:20) 5.56 (09:20) 1.2 0 0.8 0.4 0
19-10-2019 19.4 (13:20) 10.7 (08:40) 15 8.89 (14:00) 3.89 (14:20) 0 0 0 0 0
18-10-2019 18.7 (13:10) 10.8 (00:20) 14.8 6.67 (07:20) 3.89 (07:20) 0 0 0 0 0
17-10-2019 20.1 (14:30) 8.5 (00:00) 14.3 7.22 (14:40) 4.17 (01:50) 0 0 0 0 0
16-10-2019 16.7 (15:10) 6 (00:00) 11.4 7.22 (02:10) 4.44 (02:10) 0 0 0 0 0
15-10-2019 12.7 (16:00) 4.1 (00:00) 8.4 22.78 (05:20) 13.06 (05:30) 0 0 0 0 0
14-10-2019 16 (13:20) 10.5 (00:00) 13.3 7.5 (15:30) 4.17 (16:00) 1.8 0 0 1.8 0
13-10-2019 19.1 (13:30) 13.1 (00:00) 16.1 7.78 (15:30) 4.17 (15:30) 0 0 0 0 0
12-10-2019 17.6 (13:40) 12.2 (00:00) 14.9 9.17 (16:10) 4.72 (12:50) 0 0 0 0 0
11-10-2019 19.9 (15:20) 9.4 (00:00) 14.6 6.94 (16:20) 3.61 (15:40) 0 0 0 0 0
10-10-2019 15.8 (14:00) 9.6 (00:00) 12.7 9.17 (00:30) 5.56 (00:30) 0 0 0 0 0
09-10-2019 21 (15:30) 11.9 (00:00) 16.4 8.61 (23:50) 5.28 (23:40) 0 0 0 0 0
08-10-2019 20.8 (14:00) 11.8 (00:00) 16.3 12.78 (00:10) 8.06 (00:20) 0 0 0 0 0
07-10-2019 17.4 (17:10) 8.7 (00:00) 13 23.61 (05:00) 13.61 (10:40) 0 0 0 0 0
06-10-2019 19.7 (14:40) 11.4 (00:00) 15.6 18.06 (23:59) 9.72 (23:40) 0 0 0 0 0
05-10-2019 20.9 (15:20) 10.2 (00:00) 15.5 12.5 (03:20) 7.78 (08:30) 0 0 0 0 0
04-10-2019 21.6 (14:20) 12.1 (00:00) 16.9 19.44 (03:40) 12.22 (03:40) 0 0 0 0 0
03-10-2019 19.8 (17:00) 7.8 (00:00) 13.8 18.33 (01:40) 10.83 (01:00) 0 0 0 0 0
02-10-2019 16.1 (15:00) 9.7 (00:00) 12.9 26.11 (09:10) 14.44 (09:00) 0 0 0 0 0
01-10-2019 25.5 (15:30) 14.9 (00:00) 20.2 10.83 (23:59) 6.11 (22:00) 0 0 0 0 0
30-09-2019 22.4 (11:00) 15.8 (00:00) 19.1 6.11 (15:40) 4.17 (06:40) 0 0 0 0 0
29-09-2019 25.2 (14:10) 12.3 (00:00) 18.8 6.67 (09:30) 4.17 (09:30) 0 0 0 0 0
28-09-2019 19.8 (14:50) 13.2 (00:00) 16.5 6.67 (16:40) 3.89 (04:10) 0 0 0 0 0
27-09-2019 23.5 (13:00) 14.6 (00:00) 19.1 6.39 (07:00) 4.72 (07:10) 0 0 0 0 0
26-09-2019 21.6 (14:30) 10.9 (00:00) 16.3 8.61 (01:10) 6.11 (05:20) 0 0 0 0 0
25-09-2019 19.8 (17:10) 12.1 (00:00) 15.9 13.61 (05:10) 7.78 (05:20) 0 0 0 0 0
24-09-2019 25.3 (16:00) 11.9 (00:00) 18.6 8.61 (12:40) 5.28 (03:00) 0 0 0 0 0
23-09-2019 18.8 (15:30) 10.4 (00:00) 14.6 9.72 (00:40) 6.39 (00:50) 0 0 0 0 0
22-09-2019 20.1 (15:20) 12.4 (00:00) 16.3 10.28 (21:00) 6.39 (21:10) 18.4 0 1.4 17 0

Gráficas

Temp. máximas Temp. mínimas Temp. medias Precipitaciones Rachas de viento máximas Velocidades máximas media en intervalos de 10 minutos

Datos horarios

Fecha y hora oficial Temperatura (ºC) Velocidad del viento (km/h) Dirección del viento Racha (km/h) Dirección de racha Precipitación (mm) Presión (hPa) Tendencia (hPa) Humedad (%)
2019-10-21 23:00:00 6.1 4 Oeste 7 Oeste 0 -- -- 86
2019-10-21 22:00:00 6.4 3 Nordeste 6 Nordeste 0 -- -- 90
2019-10-21 21:00:00 7.7 3 Sudeste 10 Este 0 -- -- 93
2019-10-21 20:00:00 7.8 5 Este 17 Sudeste 0 -- -- 93
2019-10-21 19:00:00 8.3 7 Este 18 Este 0 -- -- 89
2019-10-21 18:00:00 8.7 10 Este 23 Este 0 -- -- 83
2019-10-21 17:00:00 9.5 11 Este 22 Este 0 -- -- 75
2019-10-21 16:00:00 9.5 8 Este 19 Este 0 -- -- 74
2019-10-21 15:00:00 9.7 7 Este 17 Este 0 -- -- 75
2019-10-21 14:00:00 9.4 7 Este 15 Este 0 -- -- 78
2019-10-21 13:00:00 8.2 4 Oeste 13 Oeste 0 -- -- 83
2019-10-21 12:00:00 8.3 9 Oeste 17 Oeste 0 -- -- 83
2019-10-21 11:00:00 6.1 10 Oeste 20 Oeste 0 -- -- 90
2019-10-21 10:00:00 5.4 10 Oeste 19 Oeste 0 -- -- 94
2019-10-21 09:00:00 4.6 13 Oeste 21 Noroeste 0 -- -- 93
2019-10-21 08:00:00 4.7 13 Oeste 21 Oeste 0.2 -- -- 90
2019-10-21 07:00:00 4.8 12 Oeste 20 Oeste 0 -- -- 91
2019-10-21 06:00:00 4.9 13 Oeste 21 Oeste 0 -- -- 92
2019-10-21 05:00:00 4.7 14 Oeste 22 Oeste 0 -- -- 91
2019-10-21 04:00:00 4.8 14 Oeste 27 Oeste 0 -- -- 91
2019-10-21 03:00:00 5.1 15 Oeste 32 Noroeste 0 -- -- 92
2019-10-21 02:00:00 5.5 17 Noroeste 28 Noroeste 0 -- -- 87
2019-10-21 01:00:00 6 17 Noroeste 31 Noroeste 0 -- -- 85
2019-10-21 00:00:00 6.6 17 Oeste 32 Oeste 0 -- -- 85
2019-10-20 23:00:00 7 17 Oeste 28 Noroeste 0 -- -- 85
2019-10-20 22:00:00 6.8 13 Noroeste 22 Oeste 0 -- -- 80
2019-10-20 21:00:00 7.2 9 Oeste 14 Oeste 0 -- -- 69
2019-10-20 20:00:00 8.3 2 Sur 6 Sur 0 -- -- 75
2019-10-20 19:00:00 10.4 2 Sur 11 Sur 0 -- -- 81
2019-10-20 18:00:00 11.2 2 Sur 12 Sur 0 -- -- 63
2019-10-20 17:00:00 10.9 7 Oeste 17 Oeste 0 -- -- 64
2019-10-20 16:00:00 10.7 9 Oeste 21 Oeste 0 -- -- 66
2019-10-20 15:00:00 11.2 12 Noroeste 25 Oeste 0 -- -- 64
2019-10-20 14:00:00 11.2 5 Norte 23 Sur 0 -- -- 69
2019-10-20 13:00:00 10.7 4 Sudeste 26 Oeste 0.4 -- -- 75
2019-10-20 12:00:00 12.5 5 Sur 23 Sur 0 -- -- 67
2019-10-20 11:00:00 12.1 9 Sur 25 Oeste 0 -- -- 66
2019-10-20 10:00:00 9.8 9 Sudoeste 44 Sudoeste 0.8 -- -- 81
2019-10-20 09:00:00 12.2 13 Sur 28 Sur 0 -- -- 74
2019-10-20 08:00:00 11.8 4 Sudeste 18 Sur 0 -- -- 83
2019-10-20 07:00:00 12.1 6 Sur 21 Sudeste 0 -- -- 80
2019-10-20 06:00:00 12.3 7 Este 33 Sudeste 0 -- -- 87
2019-10-20 05:00:00 11.9 6 Sudeste 23 Sur 0 -- -- 90
2019-10-20 04:00:00 12 3 Este 12 Este 0 -- -- 92
2019-10-20 03:00:00 12.1 3 Este 10 Este 0 -- -- 92
2019-10-20 02:00:00 11.3 3 Este 9 Sudeste 0 -- -- 88
2019-10-20 01:00:00 12 5 Sudeste 18 Sudeste 0 -- -- 84
2019-10-20 00:00:00 12.2 4 Este 20 Sur 0 -- -- 80
2019-10-19 23:00:00 12.2 5 Sudeste 18 Sudeste 0 -- -- 80
2019-10-19 22:00:00 12 4 Sudeste 19 Sudeste 0 -- -- 83
2019-10-19 21:00:00 13 5 Sudeste 15 Este 0 -- -- 79
2019-10-19 20:00:00 14.3 6 Sudoeste 18 Sur 0 -- -- 58
2019-10-19 19:00:00 15.1 4 Sudoeste 20 Sudoeste 0 -- -- 57
2019-10-19 18:00:00 16.5 10 Sudoeste 28 Sudoeste 0 -- -- 53
2019-10-19 17:00:00 17.9 11 Sudoeste 32 Oeste 0 -- -- 48
2019-10-19 16:00:00 18.2 6 Sudeste 23 Este 0 -- -- 58
2019-10-19 15:00:00 17.6 10 Este 29 Este 0 -- -- 60
2019-10-19 14:00:00 19.1 13 Este 32 Este 0 -- -- 49
2019-10-19 13:00:00 18.5 7 Sudoeste 22 Sudoeste 0 -- -- 44
2019-10-19 12:00:00 17.6 5 Sudoeste 13 Oeste 0 -- -- 50
2019-10-19 11:00:00 15.9 8 Oeste 24 Oeste 0 -- -- 60
2019-10-19 10:00:00 14.8 5 Oeste 13 Oeste 0 -- -- 66
2019-10-19 09:00:00 11.3 8 Oeste 10 Oeste 0 -- -- 78
2019-10-19 08:00:00 11.1 5 Sudoeste 11 Sudoeste 0 -- -- 75
2019-10-19 07:00:00 12.6 5 Sur 14 Sur 0 -- -- 70
2019-10-19 06:00:00 13.2 8 Sur 17 Sur 0 -- -- 67
2019-10-19 05:00:00 12.3 4 Sur 13 Sur 0 -- -- 70
2019-10-19 04:00:00 12.6 6 Sur 14 Sur 0 -- -- 70
2019-10-19 03:00:00 12.2 0 Calma 8 Oeste 0 -- -- 77
2019-10-19 02:00:00 11.1 8 Oeste 15 Sudoeste 0 -- -- 80
2019-10-19 01:00:00 12.9 5 Sudoeste 20 Sur 0 -- -- 73
2019-10-19 00:00:00 14.5 10 Sur 19 Sur 0 -- -- 68
2019-10-18 23:00:00 14.2 8 Sudoeste 17 Sur 0 -- -- 71
2019-10-18 22:00:00 13.9 5 Sur 11 Sur 0 -- -- 76
2019-10-18 21:00:00 14.1 0 Calma 9 Sur 0 -- -- 78
2019-10-18 20:00:00 12.6 0 Calma 6 Este 0 -- -- 75
2019-10-18 19:00:00 14.7 3 Este 12 Este 0 -- -- 68
2019-10-18 18:00:00 16.3 6 Sudeste 17 Este 0 -- -- 63
2019-10-18 17:00:00 17.5 6 Este 16 Este 0 -- -- 62
2019-10-18 16:00:00 18.1 5 Sudeste 19 Este 0 -- -- 59
2019-10-18 15:00:00 17.9 9 Este 19 Este 0 -- -- 61
2019-10-18 14:00:00 18.2 6 Sudeste 17 Este 0 -- -- 61
2019-10-18 13:00:00 18.5 8 Este 18 Este 0 -- -- 60
2019-10-18 12:00:00 17.9 4 Sudoeste 20 Oeste 0 -- -- 63
2019-10-18 11:00:00 16.6 10 Oeste 22 Oeste 0 -- -- 67
2019-10-18 10:00:00 14.8 6 Oeste 14 Oeste 0 -- -- 74
2019-10-18 09:00:00 13.2 6 Oeste 17 Oeste 0 -- -- 75
2019-10-18 08:00:00 12.9 6 Oeste 24 Oeste 0 -- -- 76
2019-10-18 07:00:00 11.6 9 Oeste 15 Oeste 0 -- -- 73
2019-10-18 06:00:00 11.6 6 Oeste 10 Sur 0 -- -- 72
2019-10-18 05:00:00 11.4 6 Sudoeste 11 Sudoeste 0 -- -- 73
2019-10-18 04:00:00 10.9 6 Oeste 8 Sudoeste 0 -- -- 76
2019-10-18 03:00:00 11.2 5 Oeste 13 Sudoeste 0 -- -- 76
2019-10-18 02:00:00 11.6 8 Sudoeste 13 Sudoeste 0 -- -- 77
2019-10-18 01:00:00 12.1 7 Sudoeste 13 Sudoeste 0 -- -- 75
2019-10-18 00:00:00 11.3 2 Noroeste 6 Sudoeste 0 -- -- 78
2019-10-17 23:00:00 11.9 5 Sudoeste 8 Sudoeste 0 -- -- 76
2019-10-17 22:00:00 12.1 6 Sudoeste 9 Sudoeste 0 -- -- 71
2019-10-17 21:00:00 11.6 7 Oeste 9 Oeste 0 -- -- 72
2019-10-17 20:00:00 12.7 6 Oeste 10 Noroeste 0 -- -- 72
2019-10-17 19:00:00 15.1 3 Sudeste 8 Este 0 -- -- 70
2019-10-17 18:00:00 16.1 5 Este 10 Sudeste 0 -- -- 64
2019-10-17 17:00:00 16.6 2 Sudoeste 16 Oeste 0 -- -- 52
2019-10-17 16:00:00 17.5 7 Noroeste 25 Oeste 0 -- -- 45
2019-10-17 15:00:00 19.2 12 Oeste 26 Sudoeste 0 -- -- 37
2019-10-17 14:00:00 19.2 12 Oeste 24 Sudoeste 0 -- -- 35
2019-10-17 13:00:00 18.7 9 Oeste 19 Oeste 0 -- -- 33
2019-10-17 12:00:00 17.2 5 Este 14 Este 0 -- -- 44
2019-10-17 11:00:00 16.5 3 Oeste 8 Sur 0 -- -- 45
2019-10-17 10:00:00 14.9 3 Este 6 Este 0 -- -- 48
2019-10-17 09:00:00 11 0 Calma 8 Oeste 0 -- -- 51
2019-10-17 08:00:00 8.7 8 Oeste 9 Oeste 0 -- -- 51
2019-10-17 07:00:00 8.9 6 Oeste 11 Oeste 0 -- -- 52
2019-10-17 06:00:00 9.1 8 Oeste 14 Oeste 0 -- -- 53
2019-10-17 05:00:00 9.3 11 Oeste 19 Oeste 0 -- -- 53
2019-10-17 04:00:00 9.6 14 Oeste 20 Oeste 0 -- -- 56
2019-10-17 03:00:00 9.7 11 Oeste 17 Oeste 0 -- -- 57
2019-10-17 02:00:00 10.3 14 Oeste 22 Oeste 0 -- -- 57
2019-10-17 01:00:00 10.7 14 Oeste 20 Oeste 0 -- -- 61
2019-10-17 00:00:00 9.2 9 Oeste 12 Oeste 0 -- -- 71
2019-10-16 23:00:00 9.3 4 Oeste 10 Sudoeste 0 -- -- 70
2019-10-16 22:00:00 9.3 7 Sudoeste 12 Sudoeste 0 -- -- 71
2019-10-16 21:00:00 10.2 7 Sur 14 Sur 0 -- -- 73
2019-10-16 20:00:00 10.2 3 Sur 8 Sudeste 0 -- -- 80
2019-10-16 19:00:00 12 5 Sudeste 12 Sudeste 0 -- -- 73
2019-10-16 18:00:00 13.5 3 Sudeste 20 Este 0 -- -- 66
2019-10-16 17:00:00 14.9 9 Este 17 Este 0 -- -- 61
2019-10-16 16:00:00 15.7 7 Sudeste 15 Este 0 -- -- 57
2019-10-16 15:00:00 16.3 3 Sudoeste 14 Sudoeste 0 -- -- 41
2019-10-16 14:00:00 15.9 9 Sudoeste 20 Sudoeste -- -- -- 42
2019-10-16 13:00:00 15.2 7 Oeste 18 Oeste 0 -- -- 44
2019-10-16 12:00:00 13.7 9 Noroeste 17 Noroeste 0 -- -- 48
2019-10-16 11:00:00 12.3 11 Oeste 22 Oeste 0 -- -- 51
2019-10-16 10:00:00 10.7 12 Oeste 22 Oeste 0 -- -- 53
2019-10-16 09:00:00 7.7 8 Oeste 14 Oeste 0 -- -- 61
2019-10-16 08:00:00 6 4 Oeste 8 Oeste 0 -- -- 69
2019-10-16 07:00:00 6.4 5 Oeste 16 Oeste 0 -- -- 69
2019-10-16 06:00:00 7.1 10 Oeste 19 Noroeste 0 -- -- 69
2019-10-16 05:00:00 6.5 12 Oeste 20 Oeste 0 -- -- 71
2019-10-16 04:00:00 6.3 14 Oeste 22 Oeste 0 -- -- 72
2019-10-16 03:00:00 6.6 13 Oeste 26 Oeste 0 -- -- 70
2019-10-16 02:00:00 7 15 Oeste 24 Oeste 0 -- -- 66
2019-10-16 01:00:00 6.8 11 Oeste 20 Oeste 0 -- -- 64
2019-10-16 00:00:00 6.8 11 Oeste 17 Oeste 0 -- -- 62
2019-10-15 23:00:00 6 10 Oeste 14 Oeste 0 -- -- 65
2019-10-15 22:00:00 6.9 8 Oeste 15 Oeste 0 -- -- 63
2019-10-15 21:00:00 7.1 11 Oeste 17 Oeste 0 -- -- 63
2019-10-15 20:00:00 7.9 9 Oeste 19 Oeste 0 -- -- 61
2019-10-15 19:00:00 9.9 10 Oeste 26 Oeste 0 -- -- 54
2019-10-15 18:00:00 11.7 8 Oeste 35 Noroeste 0 -- -- 48
2019-10-15 17:00:00 12.6 15 Oeste 40 Oeste 0 -- -- 48
2019-10-15 16:00:00 12.7 18 Noroeste 45 Noroeste 0 -- -- 48
2019-10-15 15:00:00 11.9 26 Noroeste 53 Noroeste 0 -- -- 51
2019-10-15 14:00:00 11.1 26 Noroeste 63 Oeste 0 -- -- 52
2019-10-15 13:00:00 10.2 35 Oeste 61 Noroeste 0 -- -- 54
2019-10-15 12:00:00 9 29 Oeste 61 Oeste 0 -- -- 59
2019-10-15 11:00:00 7.3 31 Oeste 67 Oeste 0 -- -- 68
2019-10-15 10:00:00 5.9 30 Oeste 55 Oeste 0 -- -- 72
2019-10-15 09:00:00 4.7 25 Oeste 62 Oeste 0 -- -- 76
2019-10-15 08:00:00 4.1 24 Oeste 55 Oeste 0 -- -- 78
2019-10-15 07:00:00 4.4 23 Oeste 57 Oeste 0 -- -- 78
2019-10-15 06:00:00 5.1 37 Oeste 82 Oeste 0 -- -- 77
2019-10-15 05:00:00 5.8 32 Oeste 69 Oeste 0 -- -- 77
2019-10-15 04:00:00 6.9 37 Oeste 63 Oeste 0 -- -- 74
2019-10-15 03:00:00 8 30 Oeste 58 Oeste 0 -- -- 73
2019-10-15 02:00:00 9.1 23 Oeste 45 Oeste 0 -- -- 78
2019-10-15 01:00:00 9.1 19 Oeste 32 Noroeste 0 -- -- 85
2019-10-15 00:00:00 10.5 12 Oeste 22 Noroeste 0 -- -- 87
2019-10-14 23:00:00 12 6 Sudoeste 16 Sur 0 -- -- 92
2019-10-14 22:00:00 13.1 4 Sur 15 Sur 0 -- -- 96
2019-10-14 21:00:00 13.3 5 Este 15 Sudeste 0 -- -- 96
2019-10-14 20:00:00 13.6 6 Sudeste 23 Este 0 -- -- 96
2019-10-14 19:00:00 14 11 Este 26 Este 0 -- -- 96
2019-10-14 18:00:00 14.5 8 Este 15 Este 0 -- -- 92
2019-10-14 17:00:00 14.5 3 Sudeste 26 Este 0 -- -- 96
2019-10-14 16:00:00 14.3 15 Este 27 Este 0.4 -- -- 95
2019-10-14 15:00:00 14.6 4 Sur 18 Sudeste 1.4 -- -- 92
2019-10-14 14:00:00 15.8 5 Sudeste 11 Nordeste 0 -- -- 86
2019-10-14 13:00:00 15.3 5 Este 22 Este 0 -- -- 91
2019-10-14 12:00:00 14.6 12 Este 25 Este 0 -- -- 96
2019-10-14 11:00:00 14.1 13 Este 26 Este 0 -- -- 97
2019-10-14 10:00:00 13.7 14 Este 24 Sudeste 0 -- -- 97
2019-10-14 09:00:00 13.3 9 Este 24 Este 0 -- -- 97
2019-10-14 08:00:00 12.8 11 Este 19 Este 0 -- -- 97
2019-10-14 07:00:00 12.9 7 Este 16 Este 0 -- -- 97
2019-10-14 06:00:00 12.5 5 Este 13 Sur 0 -- -- 97
2019-10-14 05:00:00 12.2 5 Sur 10 Sudeste 0 -- -- 92
2019-10-14 04:00:00 12.9 2 Sudeste 8 Este 0 -- -- 96
2019-10-14 03:00:00 13.7 4 Este 9 Este 0 -- -- 96
2019-10-14 02:00:00 13.9 3 Nordeste 14 Este 0 -- -- 96
2019-10-14 01:00:00 14 6 Sudeste 16 Este 0 -- -- 96
2019-10-14 00:00:00 14.4 5 Sudeste 21 Sudeste 0 -- -- 96
2019-10-13 23:00:00 14.8 5 Sudeste 19 Sudeste 0 -- -- 96
2019-10-13 22:00:00 14.8 6 Sudeste 18 Sudeste 0 -- -- 96
2019-10-13 21:00:00 15 7 Este 22 Este 0 -- -- 96
2019-10-13 20:00:00 15.2 8 Sudeste 25 Sur 0 -- -- 95
2019-10-13 19:00:00 15.4 8 Este 23 Sudeste 0 -- -- 94
2019-10-13 18:00:00 15.9 9 Sudeste 19 Este 0 -- -- 94
2019-10-13 17:00:00 16.4 10 Este 24 Este 0 -- -- 93
2019-10-13 16:00:00 16.9 10 Este 28 Este 0 -- -- 89
2019-10-13 15:00:00 17.8 14 Este 28 Este 0 -- -- 84
2019-10-13 14:00:00 18.9 10 Este 25 Este 0 -- -- 78
2019-10-13 13:00:00 18.6 13 Este 26 Este 0 -- -- 75
2019-10-13 12:00:00 17.9 12 Este 26 Este 0 -- -- 80
2019-10-13 11:00:00 15.5 11 Este 24 Sudeste 0 -- -- 95
2019-10-13 10:00:00 14.3 9 Sudeste 24 Este 0 -- -- 97
2019-10-13 09:00:00 13.9 11 Este 23 Este 0 -- -- 97
2019-10-13 08:00:00 13.9 8 Sudeste 22 Este 0 -- -- 97
2019-10-13 07:00:00 13.9 9 Este 20 Este 0 -- -- 97
2019-10-13 06:00:00 13.8 5 Sudeste 17 Sudeste 0 -- -- 97
2019-10-13 05:00:00 13.5 5 Este 12 Este 0 -- -- 96
2019-10-13 04:00:00 13.5 3 Sudeste 11 Este 0 -- -- 96
2019-10-13 03:00:00 13.6 6 Sudeste 14 Este 0 -- -- 96
2019-10-13 02:00:00 13.5 6 Este 19 Sudeste 0 -- -- 96
2019-10-13 01:00:00 13.3 6 Sudeste 27 Sur 0 -- -- 95
2019-10-13 00:00:00 13.8 8 Sudeste 22 Sudeste 0 -- -- 96
2019-10-12 23:00:00 14 7 Sudeste 22 Sudeste 0 -- -- 96
2019-10-12 22:00:00 14.2 8 Sudeste 17 Este 0 -- -- 96
2019-10-12 21:00:00 14.3 8 Este 18 Sudeste 0 -- -- 96
2019-10-12 20:00:00 14.4 10 Este 25 Sudeste 0 -- -- 96
2019-10-12 19:00:00 14.5 12 Sudeste 23 Sudeste 0 -- -- 95
2019-10-12 18:00:00 14.9 11 Este 23 Sudeste -- -- -- 95
2019-10-12 17:00:00 15 12 Este 33 Este 0 -- -- 93
2019-10-12 16:00:00 15.9 13 Sudeste 28 Sudeste 0 -- -- 90
2019-10-12 15:00:00 16.3 11 Este 29 Este 0 -- -- 89
2019-10-12 14:00:00 17.6 13 Este 30 Este 0 -- -- 81
2019-10-12 13:00:00 17 12 Sudeste 31 Este 0 -- -- 78
2019-10-12 12:00:00 17.2 11 Este 26 Este 0 -- -- 77
2019-10-12 11:00:00 16.9 12 Este 22 Sudeste 0 -- -- 81
2019-10-12 10:00:00 14.4 8 Este 15 Sudeste 0 -- -- 90
2019-10-12 09:00:00 12.8 4 Sudeste 16 Sudeste 0 -- -- 85
2019-10-12 08:00:00 12.5 5 Sudeste 17 Sudeste 0 -- -- 78
2019-10-12 07:00:00 13.1 7 Sudeste 18 Sudeste 0 -- -- 79
2019-10-12 06:00:00 12.4 4 Sudeste 14 Sur 0 -- -- 82
2019-10-12 05:00:00 13 3 Este 26 Sudeste 0 -- -- 88
2019-10-12 04:00:00 13 7 Sudeste 19 Sudeste 0 -- -- 85
2019-10-12 03:00:00 12.9 6 Sudeste 15 Sudeste 0 -- -- 92
2019-10-12 02:00:00 13.5 4 Este 13 Sudeste 0 -- -- 95
2019-10-12 01:00:00 13.8 6 Sudeste 17 Sudeste 0 -- -- 95
2019-10-12 00:00:00 14.1 6 Sudeste 16 Sudeste 0 -- -- 95
2019-10-11 23:00:00 14.3 6 Sudeste 21 Este 0 -- -- 94
2019-10-11 22:00:00 14.7 9 Este 15 Este 0 -- -- 94
2019-10-11 21:00:00 15.2 4 Este 15 Este 0 -- -- 92
2019-10-11 20:00:00 15.7 6 Sudeste 17 Sudeste 0 -- -- 92
2019-10-11 19:00:00 16.4 8 Este 16 Este 0 -- -- 90
2019-10-11 18:00:00 17.7 9 Este 22 Este 0 -- -- 83
2019-10-11 17:00:00 18.8 10 Este 25 Sudeste 0 -- -- 76
2019-10-11 16:00:00 19.9 10 Este 23 Este 0 -- -- 69
2019-10-11 15:00:00 19.7 9 Sudeste 21 Este 0 -- -- 71
2019-10-11 14:00:00 19.1 10 Este 22 Este 0 -- -- 74
2019-10-11 13:00:00 18.9 10 Este 18 Este 0 -- -- 73
2019-10-11 12:00:00 17.4 8 Este 16 Este 0 -- -- 78
2019-10-11 11:00:00 16.2 8 Este 20 Este 0 -- -- 81
2019-10-11 10:00:00 15.6 5 Este 9 Este 0 -- -- 83
2019-10-11 09:00:00 13 0 Calma 9 Sur 0 -- -- 94
2019-10-11 08:00:00 11.5 0 Calma 5 Norte 0 -- -- 94
2019-10-11 07:00:00 12.1 0 Calma 5 Este 0 -- -- 92
2019-10-11 06:00:00 12 0 Calma 4 Noroeste 0 -- -- 94
2019-10-11 05:00:00 11.2 2 Sudoeste 4 Sudeste 0 -- -- 94
2019-10-11 04:00:00 10.8 2 Norte 4 Este 0 -- -- 93
2019-10-11 03:00:00 10.9 0 Calma 5 Sur 0 -- -- 92
2019-10-11 02:00:00 10.9 0 Calma 6 Sudoeste 0 -- -- 95
2019-10-11 01:00:00 9.4 3 Noroeste 5 Noroeste 0 -- -- 91
2019-10-11 00:00:00 9.6 3 Sudeste 7 Sudeste 0 -- -- 89
2019-10-10 23:00:00 10.3 2 Sudeste 4 Este 0 -- -- 87
2019-10-10 22:00:00 9.7 0 Calma 3 Este 0 -- -- 87
2019-10-10 21:00:00 10.2 0 Calma 6 Sur 0 -- -- 83
2019-10-10 20:00:00 10.7 0 Calma 4 Sudoeste 0 -- -- 80
2019-10-10 19:00:00 12.7 0 Calma 10 Este 0 -- -- 73
2019-10-10 18:00:00 14.1 5 Sudeste 12 Este 0 -- -- 69
2019-10-10 17:00:00 15 7 Este 14 Este 0 -- -- 66
2019-10-10 16:00:00 15 8 Este 18 Este 0 -- -- 65
2019-10-10 15:00:00 14.7 9 Este 17 Este 0 -- -- 66
2019-10-10 14:00:00 15.8 8 Este 14 Este 0 -- -- 65
2019-10-10 13:00:00 15.4 6 Este 12 Este 0 -- -- 68
2019-10-10 12:00:00 14.1 4 Este 8 Este 0 -- -- 71
2019-10-10 11:00:00 12.6 5 Oeste 9 Oeste 0 -- -- 67
2019-10-10 10:00:00 12.8 2 Sudeste 9 Oeste 0 -- -- 79
2019-10-10 09:00:00 10.4 5 Oeste 15 Noroeste 0 -- -- 70
2019-10-10 08:00:00 10.2 11 Oeste 20 Oeste 0 -- -- 67
2019-10-10 07:00:00 10.4 14 Oeste 19 Oeste 0 -- -- 65
2019-10-10 06:00:00 10.5 8 Oeste 20 Oeste 0 -- -- 66
2019-10-10 05:00:00 10.7 12 Oeste 21 Oeste 0 -- -- 66
2019-10-10 04:00:00 10.9 12 Oeste 25 Oeste 0 -- -- 66
2019-10-10 03:00:00 11 15 Oeste 28 Oeste 0 -- -- 67
2019-10-10 02:00:00 11.1 17 Oeste 32 Oeste 0 -- -- 67
2019-10-10 01:00:00 11.3 18 Oeste 33 Oeste 0 -- -- 68
2019-10-10 00:00:00 11.9 19 Oeste 31 Oeste 0 -- -- 69
2019-10-09 23:00:00 12.4 17 Oeste 30 Oeste 0 -- -- 71
2019-10-09 22:00:00 13.1 14 Oeste 29 Oeste 0 -- -- 71
2019-10-09 21:00:00 13.4 18 Oeste 28 Oeste 0 -- -- 74
2019-10-09 20:00:00 14.5 17 Oeste 26 Oeste 0 -- -- 73
2019-10-09 19:00:00 16 12 Noroeste 21 Oeste 0 -- -- 69
2019-10-09 18:00:00 17.2 11 Noroeste 24 Noroeste 0 -- -- 67
2019-10-09 17:00:00 19 9 Noroeste 26 Noroeste 0 -- -- 62
2019-10-09 16:00:00 20 12 Noroeste 25 Oeste 0 -- -- 60
2019-10-09 15:00:00 20.7 7 Oeste 22 Noroeste 0 -- -- 59
2019-10-09 14:00:00 20.1 11 Noroeste 25 Noroeste 0 -- -- 62
2019-10-09 13:00:00 20 12 Noroeste 21 Noroeste 0 -- -- 62
2019-10-09 12:00:00 18.4 4 Sudeste 15 Este 0 -- -- 70
2019-10-09 11:00:00 16.1 5 Oeste 28 Noroeste 0 -- -- 73
2019-10-09 10:00:00 15.5 10 Oeste 18 Noroeste 0 -- -- 81
2019-10-09 09:00:00 13.1 6 Oeste 12 Oeste 0 -- -- 92
2019-10-09 08:00:00 12.5 0 Calma 6 Este 0 -- -- 90
2019-10-09 07:00:00 13.1 4 Sudeste 6 Sudoeste 0 -- -- 91
2019-10-09 06:00:00 13.4 3 Este 6 Este 0 -- -- 91
2019-10-09 05:00:00 13.6 0 Calma 6 Este 0 -- -- 88
2019-10-09 04:00:00 14.5 3 Sudeste 5 Noroeste 0 -- -- 85
2019-10-09 03:00:00 14.7 3 Norte 6 Este 0 -- -- 82
2019-10-09 02:00:00 15.6 3 Sudeste 6 Noroeste 0 -- -- 77
2019-10-09 01:00:00 15.7 0 Calma 6 Sur 0 -- -- 79
2019-10-09 00:00:00 15.7 2 Sudeste 6 Sudoeste 0 -- -- 80
2019-10-08 23:00:00 15.6 2 Sudoeste 7 Sur 0 -- -- 79
2019-10-08 22:00:00 15.7 2 Sudeste 8 Sur 0 -- -- 80
2019-10-08 21:00:00 14.6 0 Calma 7 Sudeste 0 -- -- 86
2019-10-08 20:00:00 14.7 3 Norte 6 Este 0 -- -- 82
2019-10-08 19:00:00 16.4 5 Este 14 Este 0 -- -- 77
2019-10-08 18:00:00 18 9 Este 19 Este 0 -- -- 72
2019-10-08 17:00:00 19.4 9 Este 18 Este 0 -- -- 68
2019-10-08 16:00:00 20.4 10 Este 18 Este 0 -- -- 67
2019-10-08 15:00:00 20.6 11 Este 20 Este 0 -- -- 63
2019-10-08 14:00:00 20.8 9 Este 21 Este 0 -- -- 52
2019-10-08 13:00:00 20.1 9 Este 20 Este 0 -- -- 52
2019-10-08 12:00:00 19.2 8 Este 15 Este 0 -- -- 41
2019-10-08 11:00:00 18.5 6 Sudoeste 13 Sudoeste 0 -- -- 32
2019-10-08 10:00:00 16.2 5 Sur 10 Sudoeste 0 -- -- 32
2019-10-08 09:00:00 13.7 3 Sudoeste 9 Sudoeste 0 -- -- 36
2019-10-08 08:00:00 11.9 2 Sur 20 Noroeste 0 -- -- 37
2019-10-08 07:00:00 13.3 13 Noroeste 32 Oeste 0 -- -- 33
2019-10-08 06:00:00 12.8 15 Oeste 27 Oeste 0 -- -- 29
2019-10-08 05:00:00 13.1 12 Oeste 36 Oeste 0 -- -- 29
2019-10-08 04:00:00 13 18 Oeste 27 Oeste 0 -- -- 31
2019-10-08 03:00:00 13.1 9 Oeste 30 Oeste 0 -- -- 33
2019-10-08 02:00:00 13.6 18 Oeste 44 Oeste 0 -- -- 34
2019-10-08 01:00:00 14.2 24 Oeste 46 Oeste 0 -- -- 42
2019-10-08 00:00:00 14.7 27 Oeste 44 Oeste 0 -- -- 48
2019-10-07 23:00:00 15.2 31 Oeste 57 Noroeste 0 -- -- 45
2019-10-07 22:00:00 15.2 29 Noroeste 55 Noroeste 0 -- -- 54
2019-10-07 21:00:00 15.1 31 Noroeste 50 Oeste 0 -- -- 54
2019-10-07 20:00:00 15.2 26 Noroeste 49 Noroeste 0 -- -- 55
2019-10-07 19:00:00 16 26 Oeste 52 Noroeste 0 -- -- 51
2019-10-07 18:00:00 17 28 Oeste 55 Oeste 0 -- -- 45
2019-10-07 17:00:00 16.9 29 Oeste 60 Noroeste 0 -- -- 45
2019-10-07 16:00:00 17 28 Oeste 58 Noroeste 0 -- -- 41
2019-10-07 15:00:00 16 31 Oeste 63 Oeste 0 -- -- 44
2019-10-07 14:00:00 15.9 40 Noroeste 73 Oeste 0 -- -- 43
2019-10-07 13:00:00 14.6 45 Oeste 78 Oeste 0 -- -- 44
2019-10-07 12:00:00 14.8 43 Oeste 71 Noroeste 0 -- -- 45
2019-10-07 11:00:00 12.6 42 Oeste 75 Oeste 0 -- -- 51
2019-10-07 10:00:00 11.2 42 Oeste 69 Noroeste 0 -- -- 56
2019-10-07 09:00:00 9.8 36 Oeste 66 Oeste 0 -- -- 63
2019-10-07 08:00:00 8.8 39 Noroeste 81 Noroeste 0 -- -- 69
2019-10-07 07:00:00 8.8 44 Oeste 77 Noroeste 0 -- -- 71
2019-10-07 06:00:00 8.9 42 Oeste 78 Oeste 0 -- -- 68
2019-10-07 05:00:00 9 45 Oeste 85 Noroeste 0 -- -- 77
2019-10-07 04:00:00 9.1 36 Oeste 69 Oeste 0 -- -- 82
2019-10-07 03:00:00 9.6 37 Oeste 74 Oeste 0 -- -- 81
2019-10-07 02:00:00 10.2 36 Oeste 70 Oeste 0 -- -- 81
2019-10-07 01:00:00 11.1 31 Oeste 66 Oeste 0 -- -- 78
2019-10-07 00:00:00 11.7 35 Oeste 65 Noroeste 0 -- -- 78
2019-10-06 23:00:00 12.3 30 Oeste 54 Noroeste 0 -- -- 73
2019-10-06 22:00:00 12.7 28 Oeste 53 Oeste 0 -- -- 76
2019-10-06 21:00:00 13.2 32 Noroeste 58 Noroeste 0 -- -- 76
2019-10-06 20:00:00 14.6 24 Noroeste 40 Noroeste 0 -- -- 68
2019-10-06 19:00:00 16.3 19 Oeste 38 Oeste 0 -- -- 60
2019-10-06 18:00:00 17.7 20 Oeste 38 Oeste 0 -- -- 55
2019-10-06 17:00:00 19.1 19 Noroeste 36 Noroeste 0 -- -- 52
2019-10-06 16:00:00 19.1 21 Noroeste 35 Oeste 0 -- -- 52
2019-10-06 15:00:00 19.3 12 Oeste 24 Oeste 0 -- -- 57
2019-10-06 14:00:00 18.7 14 Oeste 30 Oeste 0 -- -- 59
2019-10-06 13:00:00 16.7 17 Oeste 31 Oeste 0 -- -- 65
2019-10-06 12:00:00 16.4 12 Oeste 28 Noroeste 0 -- -- 68
2019-10-06 11:00:00 14.9 15 Oeste 29 Oeste 0 -- -- 72
2019-10-06 10:00:00 13.3 18 Oeste 33 Oeste 0 -- -- 75
2019-10-06 09:00:00 13.2 15 Oeste 28 Oeste 0 -- -- 71
2019-10-06 08:00:00 11.7 15 Oeste 30 Oeste 0 -- -- 74
2019-10-06 07:00:00 12.3 18 Oeste 26 Oeste 0 -- -- 66
2019-10-06 06:00:00 11.9 14 Oeste 24 Oeste 0 -- -- 71
2019-10-06 05:00:00 12.6 16 Oeste 26 Oeste 0 -- -- 72
2019-10-06 04:00:00 13.3 17 Oeste 24 Oeste 0 -- -- 67
2019-10-06 03:00:00 13.6 14 Oeste 21 Oeste 0 -- -- 67
2019-10-06 02:00:00 14.1 12 Oeste 17 Oeste 0 -- -- 67
2019-10-06 01:00:00 14.1 12 Oeste 16 Oeste 0 -- -- 62
2019-10-06 00:00:00 13.4 9 Oeste 14 Oeste 0 -- -- 65
2019-10-05 23:00:00 13 9 Oeste 13 Oeste 0 -- -- 68
2019-10-05 22:00:00 12.7 8 Oeste 12 Oeste 0 -- -- 79
2019-10-05 21:00:00 13.8 5 Oeste 9 Sudoeste 0 -- -- 86
2019-10-05 20:00:00 14.6 3 Oeste 8 Sur 0 -- -- 84
2019-10-05 19:00:00 16.8 2 Sudeste 9 Este 0 -- -- 77
2019-10-05 18:00:00 18.1 5 Sudeste 13 Este 0 -- -- 74
2019-10-05 17:00:00 19.4 6 Este 16 Este 0 -- -- 69
2019-10-05 16:00:00 20.3 8 Este 16 Este 0 -- -- 65
2019-10-05 15:00:00 20.3 3 Sudeste 12 Este 0 -- -- 60
2019-10-05 14:00:00 19.5 5 Este 21 Oeste 0 -- -- 61
2019-10-05 13:00:00 19.1 14 Oeste 25 Oeste 0 -- -- 59
2019-10-05 12:00:00 17.9 12 Sudoeste 22 Sudoeste 0 -- -- 64
2019-10-05 11:00:00 16.1 5 Sudoeste 16 Oeste 0 -- -- 72
2019-10-05 10:00:00 14 12 Oeste 26 Oeste -- -- -- 80
2019-10-05 09:00:00 10.9 22 Oeste 38 Oeste 0 -- -- 92
2019-10-05 08:00:00 10.2 23 Oeste 35 Oeste 0 -- -- 94
2019-10-05 07:00:00 10.6 22 Oeste 41 Oeste 0 -- -- 92
2019-10-05 06:00:00 10.8 22 Oeste 35 Oeste 0 -- -- 90
2019-10-05 05:00:00 11.6 20 Oeste 37 Noroeste 0 -- -- 87
2019-10-05 04:00:00 11.5 21 Oeste 45 Oeste 0 -- -- 85
2019-10-05 03:00:00 12.5 24 Oeste 40 Oeste 0 -- -- 80
2019-10-05 02:00:00 13.2 22 Oeste 40 Oeste 0 -- -- 80
2019-10-05 01:00:00 13.7 21 Oeste 41 Oeste 0 -- -- 78
2019-10-05 00:00:00 14.7 21 Oeste 33 Oeste 0 -- -- 71
2019-10-04 23:00:00 15.2 12 Oeste 21 Oeste 0 -- -- 69
2019-10-04 22:00:00 14.8 8 Oeste 13 Oeste 0 -- -- 72
2019-10-04 21:00:00 14.8 8 Oeste 10 Oeste 0 -- -- 72
2019-10-04 20:00:00 15.6 6 Oeste 12 Sudoeste 0 -- -- 74
2019-10-04 19:00:00 18.2 3 Sur 8 Sur 0 -- -- 68
2019-10-04 18:00:00 19.4 3 Sudeste 17 Este 0 -- -- 67
2019-10-04 17:00:00 20.1 6 Este 19 Sudeste 0 -- -- 66
2019-10-04 16:00:00 20.4 11 Este 19 Este 0 -- -- 66
2019-10-04 15:00:00 21.2 6 Este 17 Oeste 0 -- -- 60
2019-10-04 14:00:00 21.2 10 Sudoeste 19 Sudoeste 0 -- -- 48
2019-10-04 13:00:00 20.3 7 Sudoeste 18 Oeste 0 -- -- 55
2019-10-04 12:00:00 19.4 8 Oeste 21 Oeste 0 -- -- 60
2019-10-04 11:00:00 17.3 12 Oeste 35 Oeste 0 -- -- 66
2019-10-04 10:00:00 15.6 22 Oeste 46 Oeste 0 -- -- 71
2019-10-04 09:00:00 13.4 26 Oeste 40 Oeste 0 -- -- 76
2019-10-04 08:00:00 12.2 25 Oeste 52 Noroeste 0 -- -- 79
2019-10-04 07:00:00 12.5 32 Oeste 56 Oeste 0 -- -- 75
2019-10-04 06:00:00 13.1 33 Oeste 62 Oeste 0 -- -- 71
2019-10-04 05:00:00 13.3 38 Oeste 67 Oeste 0 -- -- 69
2019-10-04 04:00:00 13.3 42 Oeste 70 Oeste 0 -- -- 56
2019-10-04 03:00:00 13.4 39 Oeste 68 Oeste 0 -- -- 48
2019-10-04 02:00:00 13.5 32 Oeste 58 Oeste 0 -- -- 41
2019-10-04 01:00:00 13.6 32 Noroeste 55 Noroeste 0 -- -- 47
2019-10-04 00:00:00 14.1 26 Noroeste 53 Noroeste 0 -- -- 54
2019-10-03 23:00:00 14.7 27 Oeste 45 Oeste 0 -- -- 52
2019-10-03 22:00:00 15.1 24 Noroeste 48 Noroeste 0 -- -- 49
2019-10-03 21:00:00 14.9 21 Oeste 42 Noroeste 0 -- -- 47
2019-10-03 20:00:00 15.2 18 Noroeste 43 Oeste 0 -- -- 34
2019-10-03 19:00:00 16.9 20 Noroeste 40 Oeste 0 -- -- 29
2019-10-03 18:00:00 18.5 23 Oeste 46 Oeste 0 -- -- 26
2019-10-03 17:00:00 19.8 19 Noroeste 37 Noroeste 0 -- -- 30
2019-10-03 16:00:00 19.4 21 Oeste 37 Oeste 0 -- -- 32
2019-10-03 15:00:00 18.2 17 Noroeste 38 Noroeste 0 -- -- 38
2019-10-03 14:00:00 16.7 21 Noroeste 46 Noroeste 0 -- -- 46
2019-10-03 13:00:00 14.9 21 Noroeste 45 Oeste 0 -- -- 56
2019-10-03 12:00:00 13.3 16 Oeste 47 Sudoeste 0 -- -- 62
2019-10-03 11:00:00 10.2 32 Oeste 51 Noroeste 0 -- -- 74
2019-10-03 10:00:00 9.6 32 Oeste 57 Oeste 0 -- -- 79
2019-10-03 09:00:00 8 33 Oeste 53 Oeste 0 -- -- 87
2019-10-03 08:00:00 7.8 33 Oeste 52 Oeste 0 -- -- 88
2019-10-03 07:00:00 8 32 Oeste 54 Noroeste 0 -- -- 86
2019-10-03 06:00:00 7.9 33 Oeste 57 Oeste 0 -- -- 86
2019-10-03 05:00:00 7.8 32 Oeste 54 Oeste 0 -- -- 86
2019-10-03 04:00:00 8.1 31 Oeste 53 Oeste 0 -- -- 86
2019-10-03 03:00:00 8.4 35 Oeste 63 Oeste 0 -- -- 84
2019-10-03 02:00:00 8.9 36 Oeste 66 Oeste 0 -- -- 83
2019-10-03 01:00:00 9.4 39 Oeste 62 Oeste 0 -- -- 82
2019-10-03 00:00:00 9.8 37 Oeste 69 Oeste 0 -- -- 81
2019-10-02 23:00:00 10.3 34 Oeste 73 Noroeste 0 -- -- 79
2019-10-02 22:00:00 10.9 37 Oeste 66 Noroeste 0 -- -- 75
2019-10-02 21:00:00 11.4 37 Oeste 68 Oeste 0 -- -- 73
2019-10-02 20:00:00 12.1 37 Oeste 64 Oeste 0 -- -- 71
2019-10-02 19:00:00 13.2 33 Noroeste 68 Oeste 0 -- -- 66
2019-10-02 18:00:00 14.6 33 Noroeste 67 Noroeste 0 -- -- 60
2019-10-02 17:00:00 15.6 24 Oeste 55 Oeste 0 -- -- 58
2019-10-02 16:00:00 15.4 27 Oeste 57 Oeste 0 -- -- 58
2019-10-02 15:00:00 16.1 27 Oeste 64 Oeste 0 -- -- 56
2019-10-02 14:00:00 15.7 31 Oeste 79 Oeste 0 -- -- 58
2019-10-02 13:00:00 14.9 34 Oeste 69 Oeste 0 -- -- 60
2019-10-02 12:00:00 14.4 29 Noroeste 73 Noroeste 0 -- -- 62
2019-10-02 11:00:00 12.7 32 Noroeste 84 Noroeste 0 -- -- 69
2019-10-02 10:00:00 11.1 49 Oeste 94 Oeste 0 -- -- 75
2019-10-02 09:00:00 10.1 52 Noroeste 83 Oeste 0 -- -- 79
2019-10-02 08:00:00 9.8 40 Oeste 68 Noroeste 0 -- -- 83
2019-10-02 07:00:00 10.6 30 Oeste 59 Oeste 0 -- -- 79
2019-10-02 06:00:00 11.3 36 Oeste 68 Noroeste 0 -- -- 83
2019-10-02 05:00:00 11.9 35 Oeste 57 Noroeste 0 -- -- 82
2019-10-02 04:00:00 12.4 24 Oeste 50 Oeste 0 -- -- 81
2019-10-02 03:00:00 12.9 31 Oeste 53 Noroeste 0 -- -- 79
2019-10-02 02:00:00 13.5 27 Oeste 53 Oeste 0 -- -- 75
2019-10-02 01:00:00 14.6 24 Noroeste 43 Oeste 0 -- -- 70
2019-10-02 00:00:00 15.7 22 Noroeste 39 Noroeste 0 -- -- 69
2019-10-01 23:00:00 16.3 22 Noroeste 37 Oeste 0 -- -- 67
2019-10-01 22:00:00 17.2 22 Noroeste 38 Oeste -- -- -- 61
2019-10-01 21:00:00 17.3 16 Oeste 27 Oeste 0 -- -- 56
2019-10-01 20:00:00 18.3 9 Oeste 22 Noroeste 0 -- -- 51
2019-10-01 19:00:00 20.7 12 Noroeste 21 Noroeste 0 -- -- 43
2019-10-01 18:00:00 22.7 6 Noroeste 18 Norte 0 -- -- 37
2019-10-01 17:00:00 23.1 8 Norte 17 Sudoeste 0 -- -- 36
2019-10-01 16:00:00 24 7 Este 19 Oeste 0 -- -- 58
2019-10-01 15:00:00 25.3 11 Oeste 30 Oeste 0 -- -- 28
2019-10-01 14:00:00 24.5 12 Oeste 27 Oeste 0 -- -- 33
2019-10-01 13:00:00 23.6 14 Oeste 27 Oeste 0 -- -- 35
2019-10-01 12:00:00 24.3 11 Oeste 24 Oeste 0 -- -- 34
2019-10-01 11:00:00 22.7 11 Oeste 20 Oeste 0 -- -- 36
2019-10-01 10:00:00 20.9 8 Oeste 14 Oeste 0 -- -- 41
2019-10-01 09:00:00 16.9 9 Oeste 14 Oeste 0 -- -- 49
2019-10-01 08:00:00 14.9 9 Oeste 15 Oeste 0 -- -- 50
2019-10-01 07:00:00 15.5 9 Oeste 19 Oeste 0 -- -- 49
2019-10-01 06:00:00 15.9 10 Oeste 18 Oeste 0 -- -- 49
2019-10-01 05:00:00 16.8 12 Oeste 19 Oeste 0 -- -- 47
2019-10-01 04:00:00 17.1 11 Oeste 22 Oeste 0 -- -- 48
2019-10-01 03:00:00 17.5 15 Oeste 23 Oeste 0 -- -- 48
2019-10-01 02:00:00 17.5 15 Oeste 24 Oeste 0 -- -- 56
2019-10-01 01:00:00 17.1 13 Oeste 21 Oeste 0 -- -- 61
2019-10-01 00:00:00 16.4 5 Oeste 17 Sur 0 -- -- 77
2019-09-30 23:00:00 17 6 Sur 18 Sudeste 0 -- -- 71
2019-09-30 22:00:00 17.2 6 Sur 17 Sudeste 0 -- -- 66
2019-09-30 21:00:00 16.4 5 Sudeste 13 Sudeste 0 -- -- 57
2019-09-30 20:00:00 16.4 4 Sudeste 9 Sudeste 0 -- -- 82
2019-09-30 19:00:00 17.9 3 Sudeste 13 Este 0 -- -- 84
2019-09-30 18:00:00 18.6 6 Este 17 Este 0 -- -- 81
2019-09-30 17:00:00 19.1 9 Este 20 Este 0 -- -- 81
2019-09-30 16:00:00 19.7 11 Este 22 Este 0 -- -- 75
2019-09-30 15:00:00 20.2 11 Este 21 Sudeste 0 -- -- 74
2019-09-30 14:00:00 21.2 11 Este 20 Este 0 -- -- 74
2019-09-30 13:00:00 21.3 9 Este 15 Este 0 -- -- 69
2019-09-30 12:00:00 21.8 6 Este 12 Este 0 -- -- 63
2019-09-30 11:00:00 22.4 5 Este 8 Sudeste 0 -- -- 47
2019-09-30 10:00:00 20.3 6 Oeste 14 Oeste 0 -- -- 42
2019-09-30 09:00:00 17.1 12 Oeste 17 Oeste 0 -- -- 45
2019-09-30 08:00:00 16 15 Oeste 22 Oeste 0 -- -- 45
2019-09-30 07:00:00 16 14 Oeste 20 Oeste 0 -- -- 47
2019-09-30 06:00:00 16.2 12 Oeste 19 Oeste 0 -- -- 50
2019-09-30 05:00:00 16 12 Oeste 21 Oeste 0 -- -- 54
2019-09-30 04:00:00 16 12 Oeste 15 Oeste 0 -- -- 62
2019-09-30 03:00:00 16.2 10 Oeste 13 Oeste 0 -- -- 60
2019-09-30 02:00:00 16.9 9 Oeste 11 Oeste 0 -- -- 48
2019-09-30 01:00:00 16.7 4 Oeste -- -- 0 -- -- 54
2019-09-30 00:00:00 17.2 2 Oeste 4 Oeste 0 -- -- 58
2019-09-29 23:00:00 17.3 0 Calma 4 Sudeste 0 -- -- 65
2019-09-29 22:00:00 17.4 0 Calma 4 Sur 0 -- -- 70
2019-09-29 21:00:00 17.1 2 Sudeste 7 Sudoeste 0 -- -- 74
2019-09-29 20:00:00 19 0 Calma 3 Sudeste 0 -- -- 79
2019-09-29 19:00:00 21.6 2 Sudeste 12 Sudeste 0 -- -- 73
2019-09-29 18:00:00 22.2 5 Este 17 Este 0 -- -- 72
2019-09-29 17:00:00 22.7 8 Este 19 Este 0 -- -- 67
2019-09-29 16:00:00 23.2 11 Este 22 Sudeste 0 -- -- 65
2019-09-29 15:00:00 23.7 9 Este 17 Sudeste 0 -- -- 57
2019-09-29 14:00:00 25.1 7 Sudoeste 22 Oeste 0 -- -- 32
2019-09-29 13:00:00 24.1 13 Oeste 22 Oeste 0 -- -- 33
2019-09-29 12:00:00 23.3 10 Oeste 21 Noroeste 0 -- -- 36
2019-09-29 11:00:00 21.8 10 Oeste 18 Oeste 0 -- -- 41
2019-09-29 10:00:00 19.6 10 Oeste 24 Oeste 0 -- -- 48
2019-09-29 09:00:00 16.5 12 Oeste 20 Oeste 0 -- -- 54
2019-09-29 08:00:00 13.9 12 Oeste 17 Oeste 0 -- -- 60
2019-09-29 07:00:00 13.9 11 Oeste 14 Oeste 0 -- -- 63
2019-09-29 06:00:00 14.8 8 Oeste 18 Oeste 0 -- -- 61
2019-09-29 05:00:00 15.3 11 Oeste 20 Oeste 0 -- -- 59
2019-09-29 04:00:00 15 13 Oeste 19 Oeste 0 -- -- 62
2019-09-29 03:00:00 13.3 9 Oeste 15 Noroeste 0 -- -- 76
2019-09-29 02:00:00 13.5 2 Sudoeste 8 Noroeste 0 -- -- 93
2019-09-29 01:00:00 14.1 2 Noroeste 5 Noroeste 0 -- -- 92
2019-09-29 00:00:00 14.7 0 Calma 5 Sur 0 -- -- 93
2019-09-28 23:00:00 15.5 2 Sur 13 Sur 0 -- -- 94
2019-09-28 22:00:00 16 4 Sur 11 Sur 0 -- -- 93
2019-09-28 21:00:00 16.2 4 Sudeste 15 Sudeste 0 -- -- 93
2019-09-28 20:00:00 16.2 5 Sudeste 14 Este 0 -- -- 94
2019-09-28 19:00:00 16.5 6 Este 18 Este 0 -- -- 93
2019-09-28 18:00:00 16.8 8 Este 21 Este 0 -- -- 90
2019-09-28 17:00:00 17.4 12 Este 24 Este 0 -- -- 87
2019-09-28 16:00:00 18.4 11 Este 21 Este 0 -- -- 81
2019-09-28 15:00:00 19.3 11 Este 21 Este 0 -- -- 73
2019-09-28 14:00:00 19.1 11 Este 24 Este 0 -- -- 77
2019-09-28 13:00:00 18.4 9 Este 19 Este 0 -- -- 75
2019-09-28 12:00:00 19.4 10 Este 22 Este 0 -- -- 71
2019-09-28 11:00:00 18.4 9 Este 15 Este 0 -- -- 65
2019-09-28 10:00:00 17 6 Este 12 Este 0 -- -- 77
2019-09-28 09:00:00 14.2 4 Oeste 16 Oeste 0 -- -- 69
2019-09-28 08:00:00 13.2 10 Oeste 17 Noroeste 0 -- -- 64
2019-09-28 07:00:00 13.6 12 Oeste 21 Oeste 0 -- -- 61
2019-09-28 06:00:00 -- -- -- -- -- -- -- -- --
2019-09-28 05:00:00 14.2 12 Oeste 22 Oeste 0 -- -- 67
2019-09-28 04:00:00 14.9 12 Oeste 17 Noroeste 0 -- -- 73
2019-09-28 03:00:00 14.6 4 Oeste 6 Noroeste 0 -- -- 64
2019-09-28 02:00:00 14.9 0 Calma 5 Sudeste 0 -- -- 64
2019-09-28 01:00:00 14.9 0 Calma 6 Sudeste 0 -- -- 65
2019-09-28 00:00:00 14.7 2 Sudeste 7 Este 0 -- -- 70
2019-09-27 23:00:00 15.2 0 Calma 9 Sudeste 0 -- -- 71
2019-09-27 22:00:00 15.5 3 Sur 9 Sudeste 0 -- -- 73
2019-09-27 21:00:00 17 3 Sudeste 5 Sudeste 0 -- -- 88
2019-09-27 20:00:00 17.8 3 Oeste 6 Noroeste 0 -- -- 86
2019-09-27 19:00:00 19.1 4 Este 12 Este 0 -- -- 87
2019-09-27 18:00:00 20.2 5 Sudeste 17 Este 0 -- -- 81
2019-09-27 17:00:00 21 6 Este 17 Este 0 -- -- 76
2019-09-27 16:00:00 20 8 Este 19 Este 0 -- -- 79
2019-09-27 15:00:00 20.6 9 Este 17 Sudeste 0 -- -- 76
2019-09-27 14:00:00 22 7 Sudeste 14 Este 0 -- -- 72
2019-09-27 13:00:00 23.5 4 Este 20 Nordeste 0 -- -- 52
2019-09-27 12:00:00 22.7 8 Noroeste 19 Oeste 0 -- -- 37
2019-09-27 11:00:00 21.3 9 Oeste 18 Oeste 0 -- -- 44
2019-09-27 10:00:00 19.6 11 Oeste 20 Oeste 0 -- -- 55
2019-09-27 09:00:00 17.2 13 Oeste 22 Oeste 0 -- -- 59
2019-09-27 08:00:00 16.1 14 Oeste 22 Oeste 0 -- -- 59
2019-09-27 07:00:00 15.9 16 Oeste 23 Oeste 0 -- -- 60
2019-09-27 06:00:00 15.9 15 Oeste 21 Oeste 0 -- -- 61
2019-09-27 05:00:00 16.1 13 Oeste 19 Oeste 0 -- -- 62
2019-09-27 04:00:00 15.8 13 Oeste 21 Oeste 0 -- -- 68
2019-09-27 03:00:00 15.8 12 Oeste 15 Oeste 0 -- -- 74
2019-09-27 02:00:00 15 0 Calma 4 Noroeste 0 -- -- 88
2019-09-27 01:00:00 15.4 2 Sudeste 7 Sudeste 0 -- -- 84
2019-09-27 00:00:00 16.3 5 Sur 11 Sudeste 0 -- -- 83
2019-09-26 23:00:00 15.9 5 Sur 12 Sur 0 -- -- 77
2019-09-26 22:00:00 15.5 0 Calma 9 Sur 0 -- -- 88
2019-09-26 21:00:00 15.8 0 Calma 7 Sudeste 0 -- -- 89
2019-09-26 20:00:00 16.7 0 Calma 9 Este 0 -- -- 89
2019-09-26 19:00:00 17.5 5 Sudeste 17 Este 0 -- -- 81
2019-09-26 18:00:00 18.8 8 Este 19 Este 0 -- -- 74
2019-09-26 17:00:00 20 10 Este 20 Este 0 -- -- 68
2019-09-26 16:00:00 20.3 10 Este 26 Este 0 -- -- 69
2019-09-26 15:00:00 20.9 13 Este 23 Este 0 -- -- 65
2019-09-26 14:00:00 20.9 9 Este 22 Este -- -- -- 55
2019-09-26 13:00:00 20.7 8 Este 15 Este 0 -- -- 52
2019-09-26 12:00:00 19.5 7 Este 16 Este 0 -- -- 56
2019-09-26 11:00:00 18.2 6 Este 15 Este 0 -- -- 56
2019-09-26 10:00:00 16.3 4 Sudoeste 15 Oeste 0 -- -- 60
2019-09-26 09:00:00 13.4 8 Oeste 15 Oeste 0 -- -- 70
2019-09-26 08:00:00 11.1 8 Oeste 16 Oeste 0 -- -- 75
2019-09-26 07:00:00 12 13 Oeste 23 Oeste 0 -- -- 71
2019-09-26 06:00:00 11.7 18 Oeste 30 Oeste 0 -- -- 72
2019-09-26 05:00:00 11.8 21 Oeste 29 Oeste 0 -- -- 72
2019-09-26 04:00:00 12.2 17 Oeste 29 Oeste 0 -- -- 71
2019-09-26 03:00:00 12.1 12 Oeste 29 Oeste 0 -- -- 70
2019-09-26 02:00:00 12.4 17 Oeste 31 Oeste 0 -- -- 69
2019-09-26 01:00:00 12.4 17 Oeste 28 Oeste 0 -- -- 68
2019-09-26 00:00:00 12.6 17 Oeste 28 Oeste 0 -- -- 68
2019-09-25 23:00:00 12.6 11 Oeste 18 Oeste 0 -- -- 69
2019-09-25 22:00:00 12.6 9 Oeste 13 Oeste 0 -- -- 70
2019-09-25 21:00:00 12.9 7 Oeste 12 Oeste 0 -- -- 70
2019-09-25 20:00:00 14.8 5 Oeste 9 Oeste 0 -- -- 66
2019-09-25 19:00:00 17 3 Nordeste 17 Noroeste 0 -- -- 71
2019-09-25 18:00:00 18.5 4 Noroeste 15 Oeste 0 -- -- 54
2019-09-25 17:00:00 19.7 9 Oeste 26 Sudoeste 0 -- -- 52
2019-09-25 16:00:00 19.6 12 Oeste 31 Oeste 0 -- -- 53
2019-09-25 15:00:00 19.2 12 Oeste 31 Oeste 0 -- -- 58
2019-09-25 14:00:00 18 15 Oeste 35 Oeste 0 -- -- 58
2019-09-25 13:00:00 16.9 17 Oeste 41 Oeste 0 -- -- 65
2019-09-25 12:00:00 15.7 24 Noroeste 45 Oeste 0 -- -- 70
2019-09-25 11:00:00 14.8 22 Oeste 37 Oeste 0 -- -- 74
2019-09-25 10:00:00 14.1 21 Noroeste 38 Oeste 0 -- -- 81
2019-09-25 09:00:00 12.2 26 Oeste 44 Oeste 0 -- -- 87
2019-09-25 08:00:00 13 24 Oeste 45 Oeste 0 -- -- 87
2019-09-25 07:00:00 13.8 22 Oeste 44 Oeste 0 -- -- 84
2019-09-25 06:00:00 14.6 26 Oeste 49 Oeste 0 -- -- 81
2019-09-25 05:00:00 15.6 26 Oeste 44 Oeste 0 -- -- 72
2019-09-25 04:00:00 16.2 20 Noroeste 36 Noroeste 0 -- -- 73
2019-09-25 03:00:00 16.3 12 Oeste 29 Oeste 0 -- -- 72
2019-09-25 02:00:00 15.9 17 Oeste 25 Oeste 0 -- -- 72
2019-09-25 01:00:00 16.2 14 Oeste 23 Oeste 0 -- -- 69
2019-09-25 00:00:00 16.5 15 Oeste 26 Noroeste 0 -- -- 69
2019-09-24 23:00:00 17.3 17 Oeste 25 Oeste 0 -- -- 65
2019-09-24 22:00:00 18.3 13 Noroeste 22 Noroeste 0 -- -- 59
2019-09-24 21:00:00 18.3 9 Noroeste 15 Noroeste 0 -- -- 54
2019-09-24 20:00:00 18.7 5 Oeste 9 Oeste 0 -- -- 67
2019-09-24 19:00:00 21.5 2 Sudoeste 9 Sudeste 0 -- -- 58
2019-09-24 18:00:00 22.6 4 Sudeste 14 Sudeste 0 -- -- 56
2019-09-24 17:00:00 23.2 7 Sudeste 17 Este 0 -- -- 54
2019-09-24 16:00:00 25.3 8 Oeste 25 Oeste 0 -- -- 44
2019-09-24 15:00:00 24.9 11 Oeste 28 Oeste 0 -- -- 36
2019-09-24 14:00:00 24.1 12 Oeste 26 Oeste 0 -- -- 38
2019-09-24 13:00:00 23.3 13 Oeste 31 Oeste 0 -- -- 41
2019-09-24 12:00:00 22.2 12 Oeste 30 Oeste 0 -- -- 43
2019-09-24 11:00:00 20.9 10 Sudoeste 19 Oeste 0 -- -- 45
2019-09-24 10:00:00 18.8 10 Oeste 21 Oeste 0 -- -- 52
2019-09-24 09:00:00 15.6 14 Oeste 30 Noroeste 0 -- -- 57
2019-09-24 08:00:00 14.2 14 Oeste 22 Oeste 0 -- -- 59
2019-09-24 07:00:00 13.9 13 Oeste 20 Oeste 0 -- -- 61
2019-09-24 06:00:00 14.2 17 Oeste 22 Oeste 0 -- -- 61
2019-09-24 05:00:00 14.1 14 Oeste 25 Noroeste 0 -- -- 63
2019-09-24 04:00:00 14.5 18 Oeste 27 Oeste 0 -- -- 62
2019-09-24 03:00:00 13.8 19 Oeste 27 Oeste 0 -- -- 65
2019-09-24 02:00:00 13.2 13 Oeste 21 Oeste 0 -- -- 66
2019-09-24 01:00:00 12.5 11 Oeste 15 Oeste 0 -- -- 70
2019-09-24 00:00:00 11.9 10 Oeste 14 Oeste 0 -- -- 80
2019-09-23 23:00:00 11.9 7 Oeste 8 Oeste 0 -- -- 79
2019-09-23 22:00:00 12.5 6 Oeste 8 Oeste 0 -- -- 83
2019-09-23 21:00:00 14.4 5 Sudoeste 8 Sudoeste 0 -- -- 91
2019-09-23 20:00:00 15.7 0 Calma 8 Este 0 -- -- 88
2019-09-23 19:00:00 16.2 3 Sudeste 9 Este 0 -- -- 89
2019-09-23 18:00:00 16.8 5 Este 13 Este 0 -- -- 86
2019-09-23 17:00:00 16.8 6 Este 19 Este 0 -- -- 83
2019-09-23 16:00:00 17.7 11 Este 19 Este 0 -- -- 77
2019-09-23 15:00:00 18.3 6 Este 19 Este 0 -- -- 66
2019-09-23 14:00:00 17.5 7 Sudeste 20 Nordeste 0 -- -- 64
2019-09-23 13:00:00 17.9 7 Este 15 Este 0 -- -- 65
2019-09-23 12:00:00 17.5 8 Este 17 Este 0 -- -- 61
2019-09-23 11:00:00 16.4 6 Este 12 Este 0 -- -- 61
2019-09-23 10:00:00 14.4 4 Sudoeste 9 Sur 0 -- -- 64
2019-09-23 09:00:00 12.7 6 Oeste 25 Oeste 0 -- -- 68
2019-09-23 08:00:00 10.4 15 Oeste 24 Oeste 0 -- -- 72
2019-09-23 07:00:00 10.8 14 Oeste 23 Noroeste 0 -- -- 68
2019-09-23 06:00:00 10.6 15 Oeste 28 Oeste 0 -- -- 70
2019-09-23 05:00:00 11.1 17 Oeste 33 Oeste 0 -- -- 71
2019-09-23 04:00:00 11.1 18 Oeste 29 Oeste 0 -- -- 73
2019-09-23 03:00:00 11.3 17 Oeste 32 Noroeste 0 -- -- 76
2019-09-23 02:00:00 11.5 21 Oeste 33 Noroeste 0 -- -- 77
2019-09-23 01:00:00 12.1 22 Oeste 35 Oeste 0 -- -- 81
2019-09-23 00:00:00 12.4 18 Oeste 31 Oeste 0 -- -- 84
2019-09-22 23:00:00 13.1 18 Oeste 34 Noroeste 0 -- -- 84
2019-09-22 22:00:00 13.9 20 Noroeste 36 Oeste 0 -- -- 83
2019-09-22 21:00:00 14 22 Noroeste 37 Oeste 0 -- -- 87
2019-09-22 20:00:00 14 18 Oeste 32 Oeste 0 -- -- 90
2019-09-22 19:00:00 13.9 14 Oeste 32 Noroeste 0 -- -- 91
2019-09-22 18:00:00 15 16 Noroeste 29 Noroeste 15.6 -- -- 93
2019-09-22 17:00:00 17.7 8 Oeste 15 Este 1.4 -- -- 88
2019-09-22 16:00:00 20 5 Este 16 Este 0 -- -- 80
2019-09-22 15:00:00 19.8 3 Sudeste 14 Sudoeste 0 -- -- 81
2019-09-22 14:00:00 19.2 5 Oeste 19 Oeste 0 -- -- 72
2019-09-22 13:00:00 19.1 4 Noroeste 16 Oeste 0 -- -- 72
2019-09-22 12:00:00 18.1 10 Oeste 18 Oeste 0 -- -- 75
2019-09-22 11:00:00 15.9 7 Noroeste 15 Oeste 0 -- -- 90
2019-09-22 10:00:00 15 5 Oeste 9 Oeste 0 -- -- 95
2019-09-22 09:00:00 13.9 6 Oeste 9 Oeste 0.2 -- -- 96
2019-09-22 08:00:00 13.7 6 Oeste 10 Oeste 1 -- -- 95
2019-09-22 07:00:00 13.9 2 Oeste 10 Sudeste 0.2 -- -- 95
2019-09-22 06:00:00 13.8 6 Sur 19 Sudoeste 0 -- -- 92
2019-09-22 05:00:00 14.3 9 Sur 17 Sudoeste 0 -- -- 93
2019-09-22 04:00:00 13.8 4 Sudoeste 8 Sur 0 -- -- 96
2019-09-22 03:00:00 14.4 4 Sudoeste 11 Sur 0 -- -- 96
2019-09-22 02:00:00 14.9 2 Sudoeste 12 Este 0 -- -- 96
2019-09-22 01:00:00 15.2 3 Sudeste 15 Sudeste 0 -- -- 97
2019-09-22 00:00:00 15.3 4 Sudeste 14 Sudeste 0 -- -- 97